Time;durP1;ratioP1;P1;durP2;ratioP2;P2;SDS_P1;SDS_P2;PMS_P1;PMS_P2;Temp;Humidity;BMP_temperature;BMP_pressure;BME280_temperature;BME280_humidity;BME280_pressure;Samples;Min_cycle;Max_cycle;Signal;HPM_P1;HPM_P2
2021/11/20 00:00:52;;;;;;;;;8.75;6.25;;;;;21.51;39.81;102619.47;5003273;28;52361;-47
2021/11/20 00:03:18;;;;;;;;;9.00;8.75;;;;;21.51;39.37;102618.63;5000784;28;51104;-50
2021/11/20 00:05:46;;;;;;;;;7.00;7.00;;;;;21.49;39.66;102618.81;5000262;28;51246;-46
2021/11/20 00:08:12;;;;;;;;;6.75;6.50;;;;;21.48;39.81;102621.75;5007109;28;51074;-50
2021/11/20 00:10:40;;;;;;;;;7.25;6.00;;;;;21.47;39.46;102622.81;5032897;27;51102;-47
2021/11/20 00:13:08;;;;;;;;;6.00;6.00;;;;;21.45;39.93;102611.09;5000747;28;51606;-46
2021/11/20 00:15:35;;;;;;;;;10.50;9.75;;;;;21.43;39.98;102610.41;5006346;28;51081;-46
2021/11/20 00:18:01;;;;;;;;;6.50;6.50;;;;;21.42;39.51;102611.47;4999103;28;50888;-47
2021/11/20 00:20:29;;;;;;;;;7.00;6.00;;;;;21.41;39.98;102612.50;4997878;28;51850;-49
2021/11/20 00:22:55;;;;;;;;;8.00;7.25;;;;;21.40;39.92;102605.28;4993660;28;51208;-50
2021/11/20 00:25:26;;;;;;;;;7.25;7.25;;;;;21.37;39.49;102598.25;5010343;27;51205;-50
2021/11/20 00:27:54;;;;;;;;;7.00;5.25;;;;;21.37;39.90;102600.16;5009702;28;51401;-49
2021/11/20 00:30:24;;;;;;;;;7.75;6.75;;;;;21.36;39.66;102602.03;5005448;28;51963;-49
2021/11/20 00:32:53;;;;;;;;;6.75;6.00;;;;;21.33;40.01;102592.22;5028997;27;51103;-48
2021/11/20 00:35:22;;;;;;;;;6.25;6.25;;;;;21.34;39.86;102595.84;5006145;28;51050;-45
2021/11/20 00:37:47;;;;;;;;;7.25;6.25;;;;;21.32;39.80;102593.28;5004051;27;51021;-45
2021/11/20 00:40:23;;;;;;;;;6.50;6.50;;;;;21.31;39.82;102594.31;5012200;27;51049;-46
2021/11/20 00:42:49;;;;;;;;;7.00;6.25;;;;;21.31;40.03;102593.47;5013961;27;51489;-46
2021/11/20 00:45:14;;;;;;;;;7.00;6.50;;;;;21.29;39.88;102581.78;5009865;27;51475;-47
2021/11/20 00:47:41;;;;;;;;;5.25;5.25;;;;;21.29;40.11;102587.28;4996228;28;51019;-47
2021/11/20 00:50:08;;;;;;;;;5.50;5.50;;;;;21.27;39.70;102575.59;5001861;28;51020;-46
2021/11/20 00:52:33;;;;;;;;;7.25;5.25;;;;;21.26;40.23;102583.00;5009026;28;51156;-48
2021/11/20 00:54:59;;;;;;;;;6.75;6.75;;;;;21.25;39.74;102577.63;5001973;28;51172;-48
2021/11/20 00:57:24;;;;;;;;;6.00;6.00;;;;;21.23;39.83;102572.31;5011628;28;51345;-48
2021/11/20 00:59:50;;;;;;;;;6.50;6.50;;;;;21.22;39.70;102562.31;5004696;27;51087;-49
2021/11/20 01:02:15;;;;;;;;;7.50;6.75;;;;;21.23;39.81;102571.44;5004299;28;51180;-48
2021/11/20 01:04:41;;;;;;;;;8.00;5.75;;;;;21.21;40.23;102568.88;5003898;28;51147;-47
2021/11/20 01:07:08;;;;;;;;;4.25;4.25;;;;;21.20;40.01;102561.66;4998904;28;51045;-48
2021/11/20 01:09:42;;;;;;;;;5.25;5.25;;;;;21.18;39.87;102560.16;5004598;28;51329;-48
2021/11/20 01:12:17;;;;;;;;;7.25;7.25;;;;;21.18;40.26;102566.50;5001673;28;50923;-48
2021/11/20 01:14:45;;;;;;;;;4.25;4.25;;;;;21.17;39.99;102562.03;5002457;27;51133;-47
2021/11/20 01:17:11;;;;;;;;;6.00;5.00;;;;;21.17;39.88;102556.53;4981951;28;51105;-47
2021/11/20 01:19:37;;;;;;;;;11.75;7.50;;;;;21.17;39.95;102556.53;5001502;28;52210;-47
2021/11/20 01:22:06;;;;;;;;;5.00;4.50;;;;;21.16;40.07;102551.22;5003493;28;51359;-46
2021/11/20 01:24:32;;;;;;;;;6.00;6.00;;;;;21.12;39.92;102545.19;5002350;28;51086;-44
2021/11/20 01:26:57;;;;;;;;;4.75;4.75;;;;;21.12;40.14;102542.44;5004788;28;51255;-47
2021/11/20 01:29:23;;;;;;;;;4.25;4.25;;;;;21.12;39.89;102549.84;5002520;28;52913;-45
2021/11/20 01:31:51;;;;;;;;;5.00;5.00;;;;;21.12;40.34;102547.09;5010082;27;51056;-45
2021/11/20 01:34:17;;;;;;;;;5.25;5.00;;;;;21.10;40.02;102543.69;5010380;27;51148;-45
2021/11/20 01:36:44;;;;;;;;;4.25;4.00;;;;;21.10;40.39;102543.69;5006854;28;51383;-44
2021/11/20 01:39:19;;;;;;;;;6.25;4.25;;;;;21.10;40.26;102543.69;5003563;28;51933;-49
2021/11/20 01:41:48;;;;;;;;;6.25;4.00;;;;;21.09;40.34;102537.31;5004785;27;51147;-45
2021/11/20 01:44:21;;;;;;;;;5.50;5.00;;;;;21.09;40.08;102539.22;5001780;28;51268;-46
2021/11/20 01:46:54;;;;;;;;;7.25;5.75;;;;;21.08;40.43;102538.34;5004523;28;51092;-48
2021/11/20 01:49:30;;;;;;;;;6.50;5.00;;;;;21.07;39.89;102533.88;4998733;28;52740;-45
2021/11/20 01:52:26;;;;;;;;;6.00;4.50;;;;;21.06;40.46;102525.81;5015248;27;51906;-46
2021/11/20 01:55:10;;;;;;;;;6.00;6.00;;;;;21.05;40.26;102530.47;5003228;28;51163;-46
2021/11/20 01:57:47;;;;;;;;;7.50;6.50;;;;;21.03;40.42;102530.63;5004145;28;50979;-48
2021/11/20 02:00:12;;;;;;;;;5.00;5.00;;;;;21.03;40.45;102530.63;5011377;27;51214;-48
2021/11/20 02:02:47;;;;;;;;;4.25;2.75;;;;;21.03;40.20;102527.88;5002619;27;51098;-46
2021/11/20 02:05:51;;;;;;;;;5.50;5.50;;;;;21.02;40.21;102522.56;5004128;28;51109;-50
2021/11/20 02:08:31;;;;;;;;;6.25;6.25;;;;;21.02;40.53;102528.06;4984316;27;51178;-48
2021/11/20 02:11:02;;;;;;;;;5.00;5.00;;;;;21.01;39.96;102521.69;5045793;27;50968;-45
2021/11/20 02:13:30;;;;;;;;;4.75;4.00;;;;;21.00;40.02;102519.13;5005110;28;51385;-47
2021/11/20 02:16:00;;;;;;;;;4.00;4.00;;;;;20.99;40.36;102515.53;5013529;27;51034;-47
2021/11/20 02:18:29;;;;;;;;;4.50;3.00;;;;;20.99;40.10;102514.66;5009336;28;51230;-47
2021/11/20 02:21:06;;;;;;;;;8.25;5.75;;;;;20.99;40.15;102518.28;5000521;28;51432;-49
2021/11/20 02:23:31;;;;;;;;;7.25;7.00;;;;;20.98;40.16;102522.06;5004424;28;51398;-48
2021/11/20 02:25:58;;;;;;;;;7.33;5.00;;;;;20.97;40.50;102514.84;5001610;28;67521;-49
2021/11/20 02:28:24;;;;;;;;;5.25;5.25;;;;;20.97;40.42;102516.75;5049711;27;51135;-46
2021/11/20 02:30:50;;;;;;;;;6.50;6.00;;;;;20.96;40.19;102518.66;5000775;28;51972;-49
2021/11/20 02:33:25;;;;;;;;;7.00;6.00;;;;;20.95;40.06;102511.44;5004916;28;51194;-48
2021/11/20 02:35:52;;;;;;;;;5.25;5.25;;;;;20.95;40.18;102496.81;4999481;28;51088;-46
2021/11/20 02:38:35;;;;;;;;;4.00;4.00;;;;;20.95;40.67;102499.56;5000268;28;51442;-48
2021/11/20 02:41:02;;;;;;;;;6.00;6.00;;;;;20.94;40.43;102492.31;4996119;28;51089;-45
2021/11/20 02:43:31;;;;;;;;;4.75;4.00;;;;;20.94;40.56;102500.56;5041816;27;51208;-48
2021/11/20 02:45:57;;;;;;;;;4.00;4.00;;;;;20.92;40.30;102498.00;5007147;28;51100;-48
2021/11/20 02:48:23;;;;;;;;;4.25;4.00;;;;;20.93;40.34;102491.47;4997991;28;51244;-49
2021/11/20 02:50:57;;;;;;;;;7.75;5.00;;;;;20.91;40.61;102493.53;4998861;28;51801;-48
2021/11/20 02:54:03;;;;;;;;;5.00;4.50;;;;;20.91;40.52;102496.31;4999765;28;51574;-50
2021/11/20 02:56:49;;;;;;;;;4.75;4.75;;;;;20.90;40.45;102494.59;5007609;28;51256;-50
2021/11/20 02:59:15;;;;;;;;;4.00;4.00;;;;;20.89;40.64;102490.13;5004139;28;51064;-44
2021/11/20 03:01:42;;;;;;;;;8.00;4.00;;;;;20.88;40.74;102474.66;5002406;27;51232;-45
2021/11/20 03:04:11;;;;;;;;;6.75;5.00;;;;;20.88;40.78;102477.41;4999232;27;51385;-48
2021/11/20 03:06:37;;;;;;;;;6.00;6.00;;;;;20.88;40.39;102468.28;5002093;28;51232;-46
2021/11/20 03:09:05;;;;;;;;;5.75;4.25;;;;;20.88;40.86;102466.38;5006934;28;51387;-50
2021/11/20 03:11:31;;;;;;;;;4.25;4.25;;;;;20.88;40.44;102468.28;5009290;28;54303;-48
2021/11/20 03:14:04;;;;;;;;;6.50;5.00;;;;;20.86;40.49;102468.47;5004710;27;51561;-46
2021/11/20 03:16:29;;;;;;;;;5.25;5.00;;;;;20.87;40.40;102472.94;4999940;28;51212;-47
2021/11/20 03:18:56;;;;;;;;;5.75;5.00;;;;;20.86;40.42;102464.88;5009917;27;51401;-47
2021/11/20 03:21:21;;;;;;;;;5.50;4.00;;;;;20.85;40.80;102465.91;5033080;27;62324;-46
2021/11/20 03:23:50;;;;;;;;;4.50;4.50;;;;;20.86;40.69;102459.34;4999338;27;51089;-48
2021/11/20 03:26:15;;;;;;;;;5.50;4.50;;;;;20.85;40.37;102449.38;5000349;27;51178;-48
2021/11/20 03:28:41;;;;;;;;;4.75;3.50;;;;;20.84;40.50;102447.66;5003151;27;51029;-48
2021/11/20 03:31:06;;;;;;;;;3.00;3.00;;;;;20.84;40.42;102444.88;4995780;28;51711;-48
2021/11/20 03:33:33;;;;;;;;;4.00;4.00;;;;;20.83;40.55;102443.19;4986144;27;51132;-48
2021/11/20 03:35:58;;;;;;;;;4.00;4.00;;;;;20.82;40.51;102438.72;4996029;28;51079;-48
2021/11/20 03:38:24;;;;;;;;;8.75;6.25;;;;;20.82;40.68;102428.56;5009817;27;51355;-48
2021/11/20 03:40:50;;;;;;;;;4.25;3.00;;;;;20.82;40.31;102427.69;5009622;27;51799;-48
2021/11/20 03:43:16;;;;;;;;;4.50;4.50;;;;;20.80;40.41;102425.13;5010680;28;51299;-44
2021/11/20 03:45:42;;;;;;;;;3.00;3.00;;;;;20.79;40.78;102426.19;5002470;28;51040;-46
2021/11/20 03:48:08;;;;;;;;;5.00;4.25;;;;;20.80;40.27;102421.53;5002435;28;51266;-47
2021/11/20 03:50:34;;;;;;;;;5.75;4.75;;;;;20.78;40.37;102418.97;5001979;28;51774;-49
2021/11/20 03:53:00;;;;;;;;;5.00;5.00;;;;;20.78;40.61;102410.69;5004260;27;51385;-48
2021/11/20 03:55:30;;;;;;;;;4.75;4.75;;;;;20.77;40.78;102411.75;5004701;28;51180;-46
2021/11/20 03:57:55;;;;;;;;;6.00;5.00;;;;;20.77;40.74;102410.91;5008703;27;51298;-46
2021/11/20 04:00:23;;;;;;;;;4.00;3.00;;;;;20.75;40.31;102400.91;5002778;28;51748;-45
2021/11/20 04:02:49;;;;;;;;;4.25;3.75;;;;;20.75;40.44;102398.16;5004844;28;51045;-53
2021/11/20 04:05:17;;;;;;;;;5.50;5.00;;;;;20.77;40.72;102408.13;5003310;28;51095;-46
2021/11/20 04:07:43;;;;;;;;;4.00;3.00;;;;;20.75;40.75;102400.91;5003015;28;51044;-46
2021/11/20 04:10:10;;;;;;;;;5.25;4.25;;;;;20.74;40.62;102399.22;5010809;28;51687;-46
2021/11/20 04:12:36;;;;;;;;;2.75;2.75;;;;;20.74;40.37;102393.72;5013235;28;51321;-45
2021/11/20 04:15:04;;;;;;;;;4.75;3.00;;;;;20.73;40.83;102394.72;5005052;27;52389;-44
2021/11/20 04:17:29;;;;;;;;;2.75;2.75;;;;;20.73;41.00;102385.59;5005034;28;51324;-47
2021/11/20 04:19:54;;;;;;;;;4.00;4.00;;;;;20.73;40.86;102377.34;4995337;28;51786;-45
2021/11/20 04:22:20;;;;;;;;;3.00;3.00;;;;;20.73;40.42;102380.09;5003773;28;51373;-50
2021/11/20 04:24:46;;;;;;;;;3.25;3.25;;;;;20.71;40.39;102380.28;5006374;28;51082;-46
2021/11/20 04:27:12;;;;;;;;;2.00;2.00;;;;;20.70;40.73;102378.59;5015805;28;51282;-45
2021/11/20 04:29:38;;;;;;;;;3.00;3.00;;;;;20.69;40.49;102374.13;5008554;27;51116;-50
2021/11/20 04:32:05;;;;;;;;;3.00;2.75;;;;;20.69;40.78;102371.38;5006520;28;51154;-49
2021/11/20 04:34:30;;;;;;;;;4.75;2.00;;;;;20.68;40.40;102358.66;5009150;28;51291;-45
2021/11/20 04:36:55;;;;;;;;;2.00;2.00;;;;;20.68;40.75;102366.06;5007022;28;51387;-50
2021/11/20 04:39:21;;;;;;;;;3.75;2.75;;;;;20.67;40.72;102365.19;5003448;28;51791;-47
2021/11/20 04:41:46;;;;;;;;;2.75;2.75;;;;;20.67;40.48;102361.59;5003458;27;51239;-44
2021/11/20 04:44:12;;;;;;;;;2.50;2.50;;;;;20.67;40.38;102364.34;5069851;27;51062;-46
2021/11/20 04:46:38;;;;;;;;;3.00;3.00;;;;;20.66;40.53;102357.97;5005623;28;51004;-45
2021/11/20 04:49:05;;;;;;;;;3.75;1.75;;;;;20.67;40.75;102356.09;5003863;28;50977;-49
2021/11/20 04:51:31;;;;;;;;;3.00;3.00;;;;;20.66;40.41;102352.47;5004677;28;51066;-48
2021/11/20 04:53:57;;;;;;;;;2.00;2.00;;;;;20.66;40.45;102354.38;5013580;27;51206;-46
2021/11/20 04:56:26;;;;;;;;;5.25;3.75;;;;;20.64;40.66;102354.56;5006166;28;51072;-51
2021/11/20 04:58:53;;;;;;;;;3.50;2.00;;;;;20.65;40.42;102352.66;4996055;28;51262;-50
2021/11/20 05:01:20;;;;;;;;;3.25;3.00;;;;;20.63;40.37;102352.81;5004467;27;51291;-48
2021/11/20 05:03:48;;;;;;;;;3.00;3.00;;;;;20.64;40.56;102350.97;5002928;28;51358;-49
2021/11/20 05:06:16;;;;;;;;;4.00;3.00;;;;;20.62;40.49;102337.34;5002837;28;50950;-47
2021/11/20 05:08:41;;;;;;;;;2.75;2.75;;;;;20.61;40.68;102335.66;5008643;28;52612;-46
2021/11/20 05:11:08;;;;;;;;;3.75;3.00;;;;;20.62;40.78;102345.63;5005787;27;51092;-46
2021/11/20 05:13:33;;;;;;;;;3.25;2.75;;;;;20.61;40.49;102337.53;4995950;28;51171;-47
2021/11/20 05:15:59;;;;;;;;;3.75;2.75;;;;;20.61;40.83;102337.53;5002108;28;51170;-46
2021/11/20 05:18:25;;;;;;;;;4.75;3.50;;;;;20.60;40.73;102342.19;5009081;28;51390;-46
2021/11/20 05:20:51;;;;;;;;;3.50;2.00;;;;;20.60;40.51;102336.69;5009292;27;51270;-47
2021/11/20 05:23:17;;;;;;;;;6.00;3.50;;;;;20.59;40.55;102340.50;4999806;27;51355;-45
2021/11/20 05:25:45;;;;;;;;;5.75;3.75;;;;;20.59;40.70;102343.25;5008741;27;51077;-50
2021/11/20 05:28:10;;;;;;;;;3.75;3.75;;;;;20.59;40.49;102339.63;5007688;27;52763;-49
2021/11/20 05:30:39;;;;;;;;;2.00;1.75;;;;;20.57;41.00;102326.06;5008990;28;51165;-45
2021/11/20 05:33:15;;;;;;;;;6.75;3.00;;;;;20.57;40.94;102333.47;5001926;28;51150;-47
2021/11/20 05:35:41;;;;;;;;;6.00;4.00;;;;;20.58;40.33;102338.78;5011011;28;51007;-52
2021/11/20 05:38:07;;;;;;;;;4.00;4.00;;;;;20.57;40.72;102333.47;5008076;28;51804;-45
2021/11/20 05:40:34;;;;;;;;;6.00;5.00;;;;;20.55;40.88;102328.16;5028401;27;51045;-46
2021/11/20 05:43:05;;;;;;;;;3.50;3.25;;;;;20.55;40.87;102319.91;5005902;28;51054;-45
2021/11/20 05:45:34;;;;;;;;;5.75;4.25;;;;;20.54;40.49;102315.44;5004929;28;51072;-43
2021/11/20 05:48:00;;;;;;;;;4.00;4.00;;;;;20.54;40.84;102318.19;5005131;28;52671;-46
2021/11/20 05:50:27;;;;;;;;;4.00;3.00;;;;;20.54;40.74;102323.69;5009008;28;51060;-44
2021/11/20 05:52:54;;;;;;;;;3.00;3.00;;;;;20.52;40.85;102325.75;5008143;28;51128;-46
2021/11/20 05:55:23;;;;;;;;;4.25;3.25;;;;;20.53;40.50;102321.09;5006213;28;51100;-44
2021/11/20 05:57:48;;;;;;;;;4.50;4.00;;;;;20.52;40.75;102336.75;4999138;28;51158;-49
2021/11/20 06:00:17;;;;;;;;;4.25;4.25;;;;;20.50;40.29;102341.59;5005236;27;51147;-46
2021/11/20 06:02:43;;;;;;;;;3.25;3.25;;;;;20.49;40.00;102339.03;5002500;28;51219;-49
2021/11/20 06:05:09;;;;;;;;;4.75;3.00;;;;;20.45;40.29;102335.81;5001947;28;51454;-50
2021/11/20 06:07:34;;;;;;;;;4.75;4.50;;;;;20.42;39.73;102334.28;5001653;28;51226;-49
2021/11/20 06:09:59;;;;;;;;;2.75;2.00;;;;;20.40;39.86;102336.34;5008056;28;51063;-50
2021/11/20 06:12:26;;;;;;;;;2.00;2.00;;;;;20.38;39.64;102329.31;5007420;28;51245;-49
2021/11/20 06:14:51;;;;;;;;;1.25;1.25;;;;;20.34;39.52;102330.72;4998719;28;51367;-44
2021/11/20 06:17:17;;;;;;;;;2.25;2.25;;;;;20.29;39.32;102334.03;5002158;28;51961;-48
2021/11/20 06:19:42;;;;;;;;;3.75;2.75;;;;;20.27;39.48;102327.00;5006982;28;51086;-46
2021/11/20 06:22:08;;;;;;;;;5.00;3.75;;;;;20.24;39.68;102325.47;5003949;27;51286;-49
2021/11/20 06:24:34;;;;;;;;;3.00;3.00;;;;;20.22;39.66;102334.94;5003886;27;51165;-51
2021/11/20 06:26:59;;;;;;;;;4.00;4.00;;;;;20.18;39.45;102332.56;5003959;28;51691;-48
2021/11/20 06:29:24;;;;;;;;;7.25;6.00;;;;;20.14;39.27;102331.25;5004157;27;51086;-47
2021/11/20 06:31:50;;;;;;;;;4.25;3.50;;;;;20.11;39.25;102331.63;5002452;27;51201;-48
2021/11/20 06:34:16;;;;;;;;;6.75;3.00;;;;;20.08;39.49;102336.59;5007482;28;51781;-48
2021/11/20 06:36:42;;;;;;;;;6.00;4.75;;;;;20.04;39.15;102329.78;5010225;27;52704;-46
2021/11/20 06:39:08;;;;;;;;;4.25;3.00;;;;;20.00;39.37;102337.50;5003116;28;51364;-46
2021/11/20 06:41:34;;;;;;;;;4.00;4.00;;;;;19.98;39.50;102338.75;5006072;27;51083;-46
2021/11/20 06:43:59;;;;;;;;;4.00;4.00;;;;;19.94;39.44;102330.03;5010052;28;51344;-50
2021/11/20 06:46:25;;;;;;;;;5.00;4.25;;;;;19.92;39.62;102332.09;5073968;27;52613;-46
2021/11/20 06:48:50;;;;;;;;;5.75;5.75;;;;;19.90;39.33;102328.66;5002762;28;50961;-49
2021/11/20 06:51:18;;;;;;;;;7.00;5.25;;;;;19.86;39.22;102322.66;5010445;28;51021;-50
2021/11/20 06:53:45;;;;;;;;;5.75;5.75;;;;;19.84;39.55;102321.16;4999175;28;52353;-48
2021/11/20 06:56:15;;;;;;;;;6.50;5.75;;;;;19.81;39.48;102321.53;5000481;28;51983;-49
2021/11/20 06:58:54;;;;;;;;;5.75;5.75;;;;;19.79;39.88;102323.56;5005257;28;51227;-48
2021/11/20 07:01:22;;;;;;;;;8.75;7.50;;;;;19.75;39.65;102319.50;5002606;28;51207;-49
2021/11/20 07:04:00;;;;;;;;;8.00;6.25;;;;;19.72;39.61;102312.47;5000647;28;51219;-50
2021/11/20 07:06:30;;;;;;;;;7.00;7.00;;;;;19.68;39.57;102311.09;5010395;28;51166;-50
2021/11/20 07:08:57;;;;;;;;;8.50;5.25;;;;;19.65;39.64;102308.72;5007009;28;51026;-49
2021/11/20 07:11:24;;;;;;;;;7.50;5.75;;;;;19.63;39.77;102308.06;5003317;28;51237;-51
2021/11/20 07:13:50;;;;;;;;;11.75;8.75;;;;;19.59;39.65;102302.06;5007373;28;51115;-46
2021/11/20 07:16:21;;;;;;;;;9.25;8.75;;;;;19.57;39.91;102300.53;4996247;28;54124;-48
2021/11/20 07:18:46;;;;;;;;;10.00;8.25;;;;;19.54;39.73;102307.22;5004598;28;51257;-49
2021/11/20 07:21:12;;;;;;;;;10.50;10.00;;;;;19.51;39.67;102310.34;5013991;27;51333;-49
2021/11/20 07:23:38;;;;;;;;;12.50;10.00;;;;;19.49;39.65;102306.06;5006724;28;52304;-44
2021/11/20 07:26:06;;;;;;;;;10.00;9.25;;;;;19.46;39.98;102301.75;5007019;28;51900;-49
2021/11/20 07:28:32;;;;;;;;;11.25;7.00;;;;;19.48;40.41;102309.81;5005944;27;51068;-49
2021/11/20 07:30:58;;;;;;;;;10.50;7.25;;;;;19.53;40.28;102307.41;5006041;28;51093;-50
2021/11/20 07:33:23;;;;;;;;;5.25;4.25;;;;;19.65;40.41;102313.38;5004679;28;51249;-48
2021/11/20 07:35:55;;;;;;;;;5.75;5.50;;;;;19.75;40.35;102308.50;5014991;28;51648;-49
2021/11/20 07:38:28;;;;;;;;;6.50;3.00;;;;;19.88;40.62;102311.47;5005979;28;51032;-47
2021/11/20 07:40:53;;;;;;;;;7.50;5.75;;;;;20.00;40.41;102317.41;5003009;28;51109;-46
2021/11/20 07:43:19;;;;;;;;;6.75;5.00;;;;;20.10;40.10;102318.88;5002998;28;51007;-49
2021/11/20 07:45:45;;;;;;;;;5.25;5.25;;;;;20.22;40.17;102316.56;5003923;28;51753;-46
2021/11/20 07:48:14;;;;;;;;;4.75;4.00;;;;;20.31;40.01;102315.44;4998253;28;51054;-45
2021/11/20 07:50:42;;;;;;;;;7.50;4.00;;;;;20.42;39.87;102316.88;5013133;27;51128;-47
2021/11/20 07:53:07;;;;;;;;;4.00;3.00;;;;;20.53;39.90;102321.09;5003466;28;51250;-46
2021/11/20 07:55:33;;;;;;;;;4.75;4.75;;;;;20.62;39.97;102318.09;5001750;28;51102;-50
2021/11/20 07:57:58;;;;;;;;;5.25;4.00;;;;;20.72;39.64;102324.16;5009455;28;51033;-46
2021/11/20 08:00:25;;;;;;;;;5.50;4.00;;;;;20.82;39.71;102320.28;5008042;27;51329;-48
2021/11/20 08:02:51;;;;;;;;;4.75;3.00;;;;;20.88;39.84;102317.63;5005359;28;51269;-46
2021/11/20 08:05:16;;;;;;;;;4.25;4.25;;;;;20.95;39.78;102312.25;5012809;28;52226;-46
2021/11/20 08:07:42;;;;;;;;;3.00;3.00;;;;;21.01;39.50;102316.97;5010689;28;51379;-45
2021/11/20 08:10:11;;;;;;;;;3.75;2.75;;;;;21.08;39.79;102319.84;5000959;28;51203;-48
2021/11/20 08:12:36;;;;;;;;;5.00;3.00;;;;;21.15;39.83;102318.00;5008401;28;51245;-45
2021/11/20 08:15:04;;;;;;;;;3.25;3.25;;;;;21.18;39.00;102315.72;5009412;27;52036;-47
2021/11/20 08:17:29;;;;;;;;;5.50;3.75;;;;;21.22;39.29;102321.72;5003845;28;51448;-49
2021/11/20 08:19:55;;;;;;;;;3.00;3.00;;;;;21.22;39.33;102314.28;5004018;28;51191;-46
2021/11/20 08:22:20;;;;;;;;;4.00;3.00;;;;;21.23;39.22;102316.00;5012101;28;51253;-49
2021/11/20 08:24:46;;;;;;;;;3.75;3.00;;;;;21.23;39.41;102306.88;5005092;28;50992;-46
2021/11/20 08:27:11;;;;;;;;;4.50;3.75;;;;;21.24;39.36;102312.19;5015444;28;51007;-47
2021/11/20 08:29:38;;;;;;;;;3.00;3.00;;;;;21.25;38.99;102302.88;5005703;27;52897;-48
2021/11/20 08:32:08;;;;;;;;;2.00;1.75;;;;;21.28;38.91;102290.66;5000560;28;51457;-48
2021/11/20 08:34:34;;;;;;;;;4.00;3.00;;;;;21.31;39.01;102293.88;5006570;27;51685;-47
2021/11/20 08:37:02;;;;;;;;;5.50;4.00;;;;;21.35;39.68;102304.50;4994541;27;51098;-44
2021/11/20 08:39:30;;;;;;;;;4.75;2.75;;;;;21.36;39.38;102298.78;5003710;28;51372;-47
2021/11/20 08:41:56;;;;;;;;;5.50;3.75;;;;;21.36;39.56;102290.53;5007092;28;51197;-46
2021/11/20 08:44:21;;;;;;;;;5.50;3.75;;;;;21.36;39.46;102289.69;5009895;27;52121;-49
2021/11/20 08:46:47;;;;;;;;;5.25;3.25;;;;;21.35;39.80;102285.22;5001159;28;51101;-48
2021/11/20 08:49:14;;;;;;;;;7.50;5.00;;;;;21.33;39.58;102283.50;5004425;27;51218;-44
2021/11/20 08:51:41;;;;;;;;;4.75;3.25;;;;;21.36;39.70;102276.75;5002472;28;51369;-46
2021/11/20 08:54:06;;;;;;;;;5.00;4.00;;;;;21.40;39.75;102271.72;4999406;28;51704;-46
2021/11/20 08:56:34;;;;;;;;;4.00;4.00;;;;;21.48;40.00;102268.84;5002877;27;51382;-45
2021/11/20 08:59:00;;;;;;;;;4.00;2.75;;;;;21.54;39.96;102268.06;5011028;28;51208;-45
2021/11/20 09:01:31;;;;;;;;;4.25;4.25;;;;;21.61;39.91;102271.75;5004873;28;51805;-48
2021/11/20 09:03:58;;;;;;;;;5.25;3.00;;;;;21.63;39.83;102266.03;5001492;28;51121;-44
2021/11/20 09:06:47;;;;;;;;;7.00;5.50;;;;;21.63;39.52;102260.53;5004705;28;51454;-45
2021/11/20 09:09:33;;;;;;;;;5.00;3.50;;;;;21.62;39.75;102256.91;4998587;28;51015;-48
2021/11/20 09:12:31;;;;;;;;;5.00;3.25;;;;;21.61;39.98;102249.69;5008684;28;51208;-49
2021/11/20 09:15:10;;;;;;;;;7.75;5.50;;;;;21.59;39.63;102249.03;5004086;28;51226;-51
2021/11/20 09:17:36;;;;;;;;;9.00;5.00;;;;;21.59;39.64;102247.13;4996940;28;51371;-46
2021/11/20 09:20:04;;;;;;;;;5.50;4.50;;;;;21.64;40.04;102240.16;5006166;27;51174;-49
2021/11/20 09:22:30;;;;;;;;;6.00;5.00;;;;;21.68;39.34;102236.84;5013347;28;51265;-49
2021/11/20 09:24:55;;;;;;;;;6.00;3.00;;;;;21.73;39.85;102239.84;5008052;28;52641;-49
2021/11/20 09:27:22;;;;;;;;;5.00;4.50;;;;;21.78;39.34;102242.88;5010706;27;51134;-46
2021/11/20 09:29:47;;;;;;;;;8.75;5.50;;;;;21.79;39.50;102239.06;5008324;28;51057;-49
2021/11/20 09:32:13;;;;;;;;;7.00;5.25;;;;;21.80;39.79;102239.91;5001961;28;51115;-46
2021/11/20 09:34:39;;;;;;;;;7.50;5.25;;;;;21.77;39.43;102235.63;4982536;28;51892;-50
2021/11/20 09:37:04;;;;;;;;;7.50;6.25;;;;;21.78;39.94;102236.47;4995472;27;51140;-46
2021/11/20 09:39:34;;;;;;;;;8.00;5.00;;;;;21.76;39.50;102228.41;5007284;27;51169;-49
2021/11/20 09:42:15;;;;;;;;;5.25;4.75;;;;;21.77;39.52;102224.59;5006592;27;50966;-46
2021/11/20 09:44:47;;;;;;;;;9.25;5.25;;;;;21.83;39.88;102234.00;5007903;27;51159;-47
2021/11/20 09:47:18;;;;;;;;;7.00;6.25;;;;;21.89;39.82;102233.22;5009920;28;51103;-49
2021/11/20 09:49:47;;;;;;;;;9.25;5.75;;;;;21.94;39.77;102227.94;5006144;28;51047;-49
2021/11/20 09:52:14;;;;;;;;;7.00;5.75;;;;;21.96;38.96;102224.97;5011644;28;51225;-51
2021/11/20 09:54:43;;;;;;;;;8.25;6.75;;;;;21.96;39.40;102223.06;4998754;27;52597;-50
2021/11/20 09:57:08;;;;;;;;;8.50;6.25;;;;;21.95;39.88;102224.13;5005975;28;51348;-51
2021/11/20 09:59:49;;;;;;;;;8.33;7.33;;;;;21.95;39.98;102217.75;4998740;28;51107;-50
2021/11/20 10:02:29;;;;;;;;;11.25;6.25;;;;;21.93;40.34;102215.19;5012003;28;51198;-56
2021/11/20 10:05:07;;;;;;;;;6.25;5.25;;;;;21.91;40.61;102214.53;5011308;28;50935;-48
2021/11/20 10:07:49;;;;;;;;;10.75;8.00;;;;;21.90;40.70;102208.19;5000342;28;51424;-47
2021/11/20 10:10:15;;;;;;;;;10.50;8.75;;;;;21.95;40.46;102206.72;5007619;28;51320;-52
2021/11/20 10:13:03;;;;;;;;;11.67;7.33;;;;;22.01;40.46;102211.44;4995988;28;51162;-49
2021/11/20 10:15:33;;;;;;;;;9.00;8.25;;;;;22.06;40.36;102203.41;5007827;27;52097;-49
2021/11/20 10:18:26;;;;;;;;;7.25;7.25;;;;;22.09;40.57;102201.16;5011061;28;51488;-49
2021/11/20 10:21:15;;;;;;;;;7.25;6.75;;;;;22.08;40.55;102195.81;4993396;27;51128;-46
2021/11/20 10:23:54;;;;;;;;;7.50;7.25;;;;;22.04;40.50;102189.81;4997244;28;51699;-49
2021/11/20 10:26:48;;;;;;;;;9.75;7.75;;;;;22.00;40.56;102188.53;5008861;28;51755;-49
2021/11/20 10:29:32;;;;;;;;;8.00;8.00;;;;;21.96;40.94;102186.34;4997394;28;51363;-51
2021/11/20 10:32:06;;;;;;;;;8.00;6.00;;;;;21.89;40.72;102194.59;5001710;27;51393;-52
2021/11/20 10:34:47;;;;;;;;;9.75;8.25;;;;;21.86;41.40;102184.78;5005201;27;51127;-52
2021/11/20 10:37:45;;;;;;;;;10.25;9.00;;;;;21.82;41.14;102182.63;5010227;28;51885;-50
2021/11/20 10:40:31;;;;;;;;;8.00;6.00;;;;;21.77;41.91;102179.59;4989972;28;51425;-50
2021/11/20 10:43:07;;;;;;;;;9.75;7.00;;;;;21.75;41.79;102177.06;5000253;28;51696;-45
2021/11/20 10:45:46;;;;;;;;;12.25;8.25;;;;;21.79;41.57;102172.88;4999807;28;51198;-48
2021/11/20 10:48:30;;;;;;;;;24.00;15.75;;;;;21.84;42.02;102167.59;4993061;28;51762;-50
2021/11/20 10:51:29;;;;;;;;;15.50;11.50;;;;;21.89;41.60;102161.47;4997338;27;51145;-47
2021/11/20 10:54:29;;;;;;;;;13.50;8.75;;;;;22.03;41.72;102162.44;5001404;28;51048;-45
2021/11/20 10:57:12;;;;;;;;;15.00;11.25;;;;;22.21;41.02;102150.91;5012081;28;51023;-59
2021/11/20 10:59:55;;;;;;;;;17.50;12.00;;;;;22.30;41.05;102150.56;5008491;28;52210;-54
2021/11/20 11:02:46;;;;;;;;;19.00;15.50;;;;;22.31;40.79;102149.50;4994941;28;51374;-53
2021/11/20 11:05:24;;;;;;;;;16.00;11.75;;;;;22.31;40.23;102138.44;5011547;28;51056;-52
2021/11/20 11:08:23;;;;;;;;;14.50;12.50;;;;;22.30;40.74;102130.34;5008975;27;51080;-51
2021/11/20 11:10:54;;;;;;;;;17.25;12.75;;;;;22.29;40.23;102129.50;4991740;28;52031;-53
2021/11/20 11:13:50;;;;;;;;;16.50;13.50;;;;;22.24;40.23;102111.88;5004431;28;51478;-51
2021/11/20 11:16:24;;;;;;;;;15.25;12.00;;;;;22.21;40.50;102113.13;4999581;28;51101;-51
2021/11/20 11:18:56;;;;;;;;;20.75;16.25;;;;;22.17;41.04;102117.31;5001639;28;50982;-52
2021/11/20 11:21:30;;;;;;;;;12.50;10.50;;;;;22.13;41.48;102105.00;4983910;28;52312;-55
2021/11/20 11:24:33;;;;;;;;;17.75;12.50;;;;;22.10;41.19;102102.66;5000837;28;51177;-52
2021/11/20 11:27:55;;;;;;;;;16.75;15.00;;;;;22.09;41.13;102098.16;5021090;27;51180;-48
2021/11/20 11:30:26;;;;;;;;;18.25;14.00;;;;;22.07;41.28;102094.75;4949638;28;51308;-52
2021/11/20 11:32:51;;;;;;;;;16.25;13.00;;;;;22.05;41.23;102072.88;4950156;28;51852;-49
2021/11/20 11:35:36;;;;;;;;;16.00;13.25;;;;;22.02;41.33;102067.75;4975557;28;51108;-49
2021/11/20 11:38:19;;;;;;;;;12.75;12.25;;;;;21.98;41.36;102069.22;4992888;28;51084;-50